Time;durP1;ratioP1;P1;durP2;ratioP2;P2;SDS_P1;SDS_P2;PMS_P1;PMS_P2;Temp;Humidity;BMP_temperature;BMP_pressure;BME280_temperature;BME280_humidity;BME280_pressure;Samples;Min_cycle;Max_cycle;Signal;HPM_P1;HPM_P2
2020/12/27 00:01:19;;;;;;;8.03;3.77;;;;;;;1.35;62.35;101055.72;1729966;82;21193;-56
2020/12/27 00:03:47;;;;;;;7.75;3.47;;;;;;;1.33;62.41;101051.00;1727520;82;21227;-56
2020/12/27 00:06:15;;;;;;;10.95;3.52;;;;;;;1.29;62.55;101056.30;1725801;82;21164;-56
2020/12/27 00:08:43;;;;;;;9.25;3.83;;;;;;;1.29;62.58;101064.08;1730102;82;21192;-57
2020/12/27 00:11:15;;;;;;;8.75;3.52;;;;;;;1.30;62.61;101064.92;1718795;82;22328;-57
2020/12/27 00:13:42;;;;;;;6.22;2.95;;;;;;;1.29;62.56;101061.92;1707631;82;21634;-57
2020/12/27 00:16:09;;;;;;;7.42;2.60;;;;;;;1.25;62.68;101063.77;1727539;82;21188;-56
2020/12/27 00:18:37;;;;;;;7.53;2.95;;;;;;;1.28;62.68;101068.02;1730591;82;21180;-57
2020/12/27 00:21:12;;;;;;;8.98;3.50;;;;;;;1.29;62.55;101070.99;1726783;82;21196;-57
2020/12/27 00:23:39;;;;;;;6.75;3.25;;;;;;;1.30;62.54;101073.54;1731411;82;21372;-56
2020/12/27 00:26:11;;;;;;;7.10;3.60;;;;;;;1.29;62.59;101071.86;1727231;82;21586;-55
2020/12/27 00:28:39;;;;;;;7.10;2.83;;;;;;;1.30;62.53;101068.36;1723608;82;21180;-56
2020/12/27 00:31:07;;;;;;;6.17;2.80;;;;;;;1.32;62.49;101070.06;1728006;82;21597;-57
2020/12/27 00:33:35;;;;;;;7.22;3.35;;;;;;;1.30;62.39;101072.24;1726546;82;21553;-56
2020/12/27 00:36:05;;;;;;;11.40;3.15;;;;;;;1.25;62.50;101062.92;1727763;82;21728;-56
2020/12/27 00:38:33;;;;;;;7.03;2.98;;;;;;;1.21;62.56;101066.06;1730502;82;21188;-57
2020/12/27 00:41:00;;;;;;;5.10;2.33;;;;;;;1.15;62.70;101064.94;1727004;82;21147;-56
2020/12/27 00:43:28;;;;;;;5.90;2.67;;;;;;;1.15;62.71;101066.69;1718353;82;21219;-57
2020/12/27 00:45:55;;;;;;;6.55;3.10;;;;;;;1.09;62.75;101065.98;1730175;82;21539;-57
2020/12/27 00:48:22;;;;;;;7.47;3.62;;;;;;;1.10;62.75;101061.63;1729373;82;21370;-57
2020/12/27 00:50:51;;;;;;;7.08;2.45;;;;;;;1.06;62.83;101058.71;1731885;82;21175;-57
2020/12/27 00:53:19;;;;;;;7.15;2.75;;;;;;;1.02;62.92;101051.94;1716181;82;21193;-58
2020/12/27 00:55:47;;;;;;;5.72;2.30;;;;;;;0.97;63.02;101045.59;1706388;83;21585;-59
2020/12/27 00:58:15;;;;;;;7.80;3.37;;;;;;;0.93;63.23;101051.77;1705683;83;21194;-57
2020/12/27 01:00:44;;;;;;;7.65;2.67;;;;;;;0.95;63.25;101047.84;1733182;82;21358;-57
2020/12/27 01:03:12;;;;;;;7.95;2.90;;;;;;;0.93;63.26;101052.61;1734185;82;21104;-57
2020/12/27 01:05:56;;;;;;;6.55;2.08;;;;;;;0.95;63.24;101069.41;1715218;82;21195;-57
2020/12/27 01:08:24;;;;;;;5.65;2.72;;;;;;;0.91;63.29;101068.66;1734197;82;21110;-57
2020/12/27 01:10:52;;;;;;;6.37;2.65;;;;;;;0.91;63.35;101071.70;1731245;82;21148;-57
2020/12/27 01:13:20;;;;;;;6.95;3.02;;;;;;;0.91;63.32;101071.24;1737132;82;21762;-58
2020/12/27 01:15:48;;;;;;;8.13;3.20;;;;;;;0.92;63.35;101072.95;1731419;82;21176;-58
2020/12/27 01:18:19;;;;;;;6.70;2.92;;;;;;;0.91;63.39;101068.66;1737625;82;21108;-57
2020/12/27 01:20:49;;;;;;;8.03;3.17;;;;;;;0.91;63.48;101065.22;1730020;82;21168;-57
2020/12/27 01:23:17;;;;;;;6.42;2.52;;;;;;;0.91;63.52;101062.63;1734975;82;21101;-57
2020/12/27 01:25:47;;;;;;;6.80;2.77;;;;;;;0.92;63.53;101075.55;1730809;82;23523;-58
2020/12/27 01:28:15;;;;;;;6.00;2.45;;;;;;;0.97;63.55;101075.39;1728332;82;21172;-57
2020/12/27 01:30:44;;;;;;;8.58;2.92;;;;;;;1.00;63.54;101074.47;1733563;82;21168;-58
2020/12/27 01:33:14;;;;;;;6.35;2.95;;;;;;;1.03;63.46;101086.05;1734286;82;21148;-58
2020/12/27 01:35:54;;;;;;;5.40;2.65;;;;;;;1.08;63.49;101075.09;1791938;77;22612;-57
2020/12/27 01:38:22;;;;;;;6.87;3.00;;;;;;;1.05;63.50;101090.27;1773395;78;21172;-57
2020/12/27 01:40:49;;;;;;;5.60;2.70;;;;;;;1.03;63.49;101081.70;1768921;78;21203;-57
2020/12/27 01:43:17;;;;;;;7.72;2.50;;;;;;;1.04;63.56;101090.31;1769421;78;21244;-57
2020/12/27 01:45:46;;;;;;;11.22;3.40;;;;;;;1.08;63.38;101093.23;1772515;80;21129;-57
2020/12/27 01:48:14;;;;;;;7.37;2.70;;;;;;;1.08;63.42;101091.48;1776727;78;21161;-57
2020/12/27 01:50:44;;;;;;;6.80;3.40;;;;;;;1.12;63.43;101096.12;1767380;80;21034;-58
2020/12/27 01:53:13;;;;;;;7.85;2.55;;;;;;;1.15;63.37;101090.86;1772240;78;21186;-57
2020/12/27 01:55:41;;;;;;;7.70;3.15;;;;;;;1.21;63.36;101089.81;1711716;81;21220;-57
2020/12/27 01:58:20;;;;;;;8.98;3.45;;;;;;;1.28;63.26;101103.86;1717359;80;21169;-57
2020/12/27 02:01:02;;;;;;;5.30;2.50;;;;;;;1.36;63.13;101102.77;1826142;76;22696;-58
2020/12/27 02:03:44;;;;;;;7.05;3.00;;;;;;;1.36;63.00;101114.02;1800247;79;21072;-57
2020/12/27 02:06:21;;;;;;;7.92;3.12;;;;;;;1.40;62.88;101113.47;1755034;79;22772;-58
2020/12/27 02:08:51;;;;;;;6.62;3.12;;;;;;;1.41;62.89;101118.61;1712723;82;21173;-57
2020/12/27 02:11:21;;;;;;;8.35;3.67;;;;;;;1.41;62.76;101120.34;1715705;82;21196;-57
2020/12/27 02:13:51;;;;;;;6.72;3.27;;;;;;;1.39;62.84;101121.67;1716363;82;20994;-57
2020/12/27 02:16:20;;;;;;;7.10;2.90;;;;;;;1.42;62.89;101129.83;1714012;82;21573;-57
2020/12/27 02:19:09;;;;;;;8.85;3.42;;;;;;;1.48;62.81;101135.68;1714663;82;21627;-57
2020/12/27 02:21:37;;;;;;;6.30;3.35;;;;;;;1.49;62.72;101126.98;1687849;82;21195;-56
2020/12/27 02:24:05;;;;;;;5.87;2.85;;;;;;;1.54;62.72;101128.61;1663082;84;21229;-56
2020/12/27 02:26:32;;;;;;;7.20;2.87;;;;;;;1.58;62.43;101123.28;1683608;84;22149;-56
2020/12/27 02:29:00;;;;;;;5.53;3.00;;;;;;;1.58;62.42;101127.60;1672179;84;21186;-56
2020/12/27 02:31:29;;;;;;;8.18;2.62;;;;;;;1.55;62.43;101131.16;1719152;82;21162;-56
2020/12/27 02:33:58;;;;;;;5.50;2.22;;;;;;;1.53;62.58;101130.78;1710873;82;21588;-57
2020/12/27 02:36:27;;;;;;;7.85;2.70;;;;;;;1.56;62.62;101136.73;1698145;82;21819;-56
2020/12/27 02:38:55;;;;;;;6.75;2.95;;;;;;;1.57;62.55;101144.08;1715960;82;21387;-56
2020/12/27 02:41:24;;;;;;;6.90;2.87;;;;;;;1.57;62.53;101140.19;1716647;82;21195;-56
2020/12/27 02:43:54;;;;;;;8.28;3.20;;;;;;;1.55;62.63;101140.23;1711086;82;21228;-56
2020/12/27 02:46:25;;;;;;;7.37;2.98;;;;;;;1.58;62.69;101141.45;1715866;82;21187;-57
2020/12/27 02:59:38;;;;;;;;;;;;;;;1.51;62.78;101160.66;1811266;75;22155;-57
2020/12/27 03:02:25;;;;;;;7.60;3.22;;;;;;;1.43;62.99;101162.63;1814268;78;20226;-57
2020/12/27 03:04:54;;;;;;;7.45;3.37;;;;;;;1.43;63.02;101162.20;1803439;78;21208;-57
2020/12/27 03:07:22;;;;;;;5.87;2.40;;;;;;;1.45;63.01;101166.05;1807887;78;21213;-57
2020/12/27 03:10:04;;;;;;;8.45;3.35;;;;;;;1.53;62.92;101169.69;1758472;79;22798;-58
2020/12/27 03:12:34;;;;;;;7.65;3.30;;;;;;;1.52;62.96;101168.02;1730980;81;21184;-57
2020/12/27 03:15:02;;;;;;;6.87;3.12;;;;;;;1.56;62.89;101176.94;1728181;82;21478;-56
2020/12/27 03:17:49;;;;;;;10.03;3.40;;;;;;;1.60;62.86;101182.45;1730292;82;22299;-57
2020/12/27 03:20:35;;;;;;;5.83;2.75;;;;;;;1.63;62.78;101183.66;1729610;82;21196;-57
2020/12/27 03:23:07;;;;;;;6.25;2.80;;;;;;;1.64;62.81;101188.39;1731740;82;21200;-57
2020/12/27 03:25:45;;;;;;;7.83;4.00;;;;;;;1.72;62.84;101186.88;1879196;75;22830;-57
2020/12/27 03:28:15;;;;;;;6.42;3.08;;;;;;;1.72;62.73;101190.31;1786376;78;21160;-57
2020/12/27 03:30:44;;;;;;;7.45;3.00;;;;;;;1.79;62.56;101192.27;1763821;80;21189;-57
2020/12/27 03:33:14;;;;;;;9.28;2.70;;;;;;;1.83;62.33;101189.97;1787324;79;21048;-57
2020/12/27 03:35:52;;;;;;;7.15;3.30;;;;;;;1.89;62.31;101191.55;1757350;79;22790;-57
2020/12/27 03:38:21;;;;;;;5.37;2.75;;;;;;;1.89;62.19;101193.69;1730000;82;21623;-57
2020/12/27 03:41:07;;;;;;;6.45;2.98;;;;;;;1.99;62.26;101200.28;1882647;75;22776;-57
2020/12/27 03:43:36;;;;;;;7.00;3.35;;;;;;;2.02;62.13;101204.09;1800345;77;21148;-57
2020/12/27 03:46:04;;;;;;;7.97;3.45;;;;;;;2.10;61.90;101205.59;1838642;75;21575;-57
2020/12/27 03:48:50;;;;;;;6.85;2.20;;;;;;;2.18;61.63;101208.79;1844787;77;21041;-57
2020/12/27 03:51:34;;;;;;;6.75;3.02;;;;;;;2.21;61.29;101211.30;1838974;75;21133;-57
2020/12/27 03:54:02;;;;;;;7.03;2.77;;;;;;;2.18;61.29;101208.79;1842300;77;21108;-57
2020/12/27 03:57:05;;;;;;;7.90;3.70;;;;;;;2.18;61.33;101208.79;1866766;74;22791;-57
2020/12/27 03:59:41;;;;;;;6.45;3.12;;;;;;;2.12;61.42;101208.98;1829816;77;21233;-57
2020/12/27 04:02:10;;;;;;;6.58;2.95;;;;;;;2.14;61.46;101213.70;1833316;75;21209;-57
2020/12/27 04:04:38;;;;;;;7.97;3.20;;;;;;;2.16;61.49;101219.69;1835645;75;21099;-57
2020/12/27 04:07:07;;;;;;;6.85;3.55;;;;;;;2.18;61.39;101217.42;1838097;77;21206;-57
2020/12/27 04:09:37;;;;;;;8.03;3.62;;;;;;;2.18;61.44;101216.58;1849082;75;21155;-57
2020/12/27 04:12:05;;;;;;;6.58;3.85;;;;;;;2.25;61.34;101224.57;1841618;75;21191;-57
2020/12/27 04:14:40;;;;;;;24.43;13.43;;;;;;;2.28;61.33;101226.23;1845545;75;21317;-58
2020/12/27 04:17:08;;;;;;;33.90;17.70;;;;;;;2.34;61.17;101229.48;1838188;75;21191;-58
2020/12/27 04:19:36;;;;;;;14.80;8.03;;;;;;;2.37;60.94;101224.20;1839347;75;21175;-58
2020/12/27 04:22:05;;;;;;;15.03;5.95;;;;;;;2.43;60.59;101228.79;1844031;75;21167;-57
2020/12/27 04:24:46;;;;;;;13.13;5.95;;;;;;;2.47;60.57;101236.87;1757454;79;23321;-59
2020/12/27 04:27:15;;;;;;;11.12;6.47;;;;;;;2.41;60.48;101239.23;1716568;82;21580;-59
2020/12/27 04:29:43;;;;;;;10.93;5.22;;;;;;;2.35;60.63;101236.36;1715367;82;21451;-59
2020/12/27 04:32:13;;;;;;;6.75;3.75;;;;;;;2.35;60.87;101235.52;1696906;82;21133;-59
2020/12/27 04:34:54;;;;;;;8.48;4.15;;;;;;;2.31;60.82;101234.77;1719286;82;21105;-59
2020/12/27 04:37:24;;;;;;;7.28;3.65;;;;;;;2.32;60.90;101239.51;1717262;82;21212;-59
2020/12/27 04:39:55;;;;;;;10.88;3.67;;;;;;;2.31;60.90;101239.97;1715492;82;21659;-59
2020/12/27 04:42:24;;;;;;;7.75;3.20;;;;;;;2.30;60.89;101238.71;1715862;82;21370;-56
2020/12/27 04:44:55;;;;;;;8.08;3.50;;;;;;;2.30;60.91;101241.31;1715502;82;21139;-57
2020/12/27 04:47:24;;;;;;;6.80;3.10;;;;;;;2.32;60.77;101239.08;1714734;82;21204;-58
2020/12/27 04:49:56;;;;;;;13.95;6.80;;;;;;;2.31;60.77;101246.45;1711360;82;21176;-58
2020/12/27 04:52:25;;;;;;;20.85;14.33;;;;;;;2.32;60.76;101253.36;1717472;82;21161;-58
2020/12/27 04:55:02;;;;;;;21.85;13.18;;;;;;;2.37;60.78;101255.36;1800603;78;22909;-59
2020/12/27 04:57:39;;;;;;;11.70;5.60;;;;;;;2.37;60.78;101255.36;1766797;80;21629;-59
2020/12/27 05:00:07;;;;;;;7.15;2.92;;;;;;;2.36;60.75;101264.50;1768653;79;21264;-59
2020/12/27 05:02:57;;;;;;;7.75;3.52;;;;;;;2.37;60.83;101263.58;1830218;76;22718;-57
2020/12/27 05:05:25;;;;;;;7.65;3.17;;;;;;;2.33;60.94;101273.23;1775743;79;21575;-61
2020/12/27 05:07:54;;;;;;;5.92;3.12;;;;;;;2.35;60.76;101266.69;1811396;79;22898;-62
2020/12/27 05:10:26;;;;;;;7.97;3.30;;;;;;;2.32;60.76;101272.84;1813288;79;21580;-62
2020/12/27 05:12:56;;;;;;;8.28;3.35;;;;;;;2.30;60.79;101275.91;1809122;79;21109;-62
2020/12/27 05:15:23;;;;;;;5.90;2.33;;;;;;;2.27;60.86;101272.56;1803567;79;21571;-62
2020/12/27 05:17:54;;;;;;;5.75;2.20;;;;;;;2.28;60.95;101266.48;1802381;79;20950;-61
2020/12/27 05:20:23;;;;;;;7.40;3.22;;;;;;;2.31;60.91;101272.89;1777105;79;21435;-62
2020/12/27 05:22:52;;;;;;;6.28;2.95;;;;;;;2.34;60.73;101280.13;1790536;79;21148;-62
2020/12/27 05:25:21;;;;;;;6.72;3.15;;;;;;;2.33;60.86;101287.97;1758285;80;21112;-62
2020/12/27 05:28:07;;;;;;;6.70;3.00;;;;;;;2.36;60.77;101294.37;1782976;79;21164;-62
2020/12/27 05:30:53;;;;;;;6.95;3.65;;;;;;;2.36;60.93;101298.27;1807976;77;21203;-62
2020/12/27 05:33:42;;;;;;;5.25;2.67;;;;;;;2.40;61.02;101301.16;1800379;79;21599;-63
2020/12/27 05:36:13;;;;;;;8.70;3.22;;;;;;;2.44;61.04;101303.20;1807163;79;21547;-61
2020/12/27 05:38:46;;;;;;;6.28;2.80;;;;;;;2.49;60.99;101303.91;1733358;79;21207;-61
2020/12/27 05:41:30;;;;;;;6.53;2.67;;;;;;;2.48;60.69;101309.56;1769162;80;21201;-61
2020/12/27 05:44:01;;;;;;;8.00;2.90;;;;;;;2.45;60.78;101304.45;1750448;81;21524;-61
2020/12/27 05:46:30;;;;;;;5.85;2.85;;;;;;;2.44;60.77;101303.20;1748275;81;21488;-62
2020/12/27 05:48:58;;;;;;;6.17;3.35;;;;;;;2.48;60.86;101310.02;1743419;81;21227;-62
2020/12/27 05:51:26;;;;;;;6.42;2.65;;;;;;;2.52;60.67;101318.11;1742079;81;21228;-61
2020/12/27 05:53:54;;;;;;;7.03;3.17;;;;;;;2.53;60.59;101323.72;1715138;81;21635;-62
2020/12/27 05:56:24;;;;;;;5.95;2.87;;;;;;;2.54;60.53;101332.77;1745055;80;21216;-61
2020/12/27 05:58:53;;;;;;;5.33;2.35;;;;;;;2.56;60.51;101335.31;1723027;79;21288;-60
2020/12/27 06:01:24;;;;;;;6.90;3.50;;;;;;;2.56;60.39;101342.66;1734019;81;21220;-61
2020/12/27 06:04:18;;;;;;;7.53;3.25;;;;;;;2.59;60.48;101342.56;1828614;76;22751;-64
2020/12/27 06:07:04;;;;;;;8.03;3.25;;;;;;;2.57;60.59;101353.88;1793861;79;21239;-63
2020/12/27 06:10:07;;;;;;;8.15;3.83;;;;;;;2.58;60.62;101359.50;1797569;77;21045;-62
2020/12/27 06:13:01;;;;;;;8.78;3.62;;;;;;;2.57;60.58;101361.68;1795704;79;21247;-63
2020/12/27 06:15:30;;;;;;;7.08;3.42;;;;;;;2.55;60.51;101363.48;1797018;79;21116;-63
2020/12/27 06:18:17;;;;;;;6.17;3.08;;;;;;;2.52;60.46;101368.77;1801459;79;21107;-63
2020/12/27 06:21:01;;;;;;;6.05;2.95;;;;;;;2.51;60.41;101376.19;1781166;79;21115;-63
2020/12/27 06:23:30;;;;;;;8.78;3.75;;;;;;;2.48;60.50;101373.21;1742608;80;21587;-61
2020/12/27 06:26:01;;;;;;;9.50;4.00;;;;;;;2.46;60.57;101371.58;1743899;81;21637;-63
2020/12/27 06:28:30;;;;;;;5.62;3.15;;;;;;;2.48;60.70;101380.16;1737483;81;21109;-62
2020/12/27 06:31:19;;;;;;;7.17;3.80;;;;;;;2.50;60.60;101383.56;1746370;81;21223;-63
2020/12/27 06:33:51;;;;;;;9.18;3.90;;;;;;;2.51;60.64;101387.88;1797337;79;21707;-58
2020/12/27 06:36:38;;;;;;;14.20;4.33;;;;;;;2.53;60.47;101378.27;1795778;77;23509;-58
2020/12/27 06:39:25;;;;;;;7.65;3.22;;;;;;;2.49;60.49;101388.34;1773322;79;21176;-58
2020/12/27 06:42:13;;;;;;;7.42;3.22;;;;;;;2.49;60.54;101394.84;1797383;79;21227;-57
2020/12/27 06:44:51;;;;;;;9.10;4.33;;;;;;;2.50;60.67;101400.45;1866884;75;22774;-56
2020/12/27 06:47:55;;;;;;;8.53;2.92;;;;;;;2.44;60.61;101409.28;1829246;77;21215;-57
2020/12/27 07:04:16;;;;;;;7.83;3.70;;;;;;;2.44;61.09;101419.68;1869053;75;22718;-58
2020/12/27 07:06:48;;;;;;;8.30;3.65;;;;;;;2.44;61.08;101427.47;1842812;75;21163;-58
2020/12/27 07:09:26;;;;;;;8.13;3.30;;;;;;;2.44;60.86;101433.09;1854119;77;21372;-58
2020/12/27 07:12:05;;;;;;;11.97;4.22;;;;;;;2.43;60.85;101430.95;1858545;77;21175;-58
2020/12/27 07:14:40;;;;;;;10.00;4.22;;;;;;;2.41;60.87;101432.30;1842649;77;21192;-58
2020/12/27 07:17:09;;;;;;;6.97;3.55;;;;;;;2.47;60.93;101440.80;1831210;77;21115;-59
2020/12/27 07:19:38;;;;;;;7.15;3.85;;;;;;;2.49;60.84;101437.70;1843867;77;21190;-58
2020/12/27 07:22:08;;;;;;;7.33;3.92;;;;;;;2.54;60.74;101437.12;1835993;75;22240;-58
2020/12/27 07:24:39;;;;;;;6.67;3.62;;;;;;;2.56;60.77;101432.75;1853646;77;21630;-59
2020/12/27 07:27:10;;;;;;;8.73;3.65;;;;;;;2.62;60.51;101427.35;1848737;77;21218;-58
2020/12/27 07:29:38;;;;;;;9.03;4.17;;;;;;;2.63;60.52;101428.22;1834329;77;21187;-59
2020/12/27 07:32:07;;;;;;;9.88;4.08;;;;;;;2.69;60.56;101423.69;1835817;77;21210;-59
2020/12/27 07:34:35;;;;;;;8.88;3.95;;;;;;;2.72;60.45;101427.50;1833600;77;21384;-58
2020/12/27 07:37:06;;;;;;;8.00;3.98;;;;;;;2.74;60.45;101434.80;1761074;77;21206;-59
2020/12/27 07:39:57;;;;;;;8.83;3.90;;;;;;;2.78;60.38;101442.89;1805924;77;21171;-59
2020/12/27 07:42:27;;;;;;;9.45;3.95;;;;;;;2.82;60.40;101446.70;1838652;77;21579;-60
2020/12/27 07:45:01;;;;;;;10.05;4.15;;;;;;;2.82;60.24;101448.00;1840625;76;21179;-58
2020/12/27 07:47:30;;;;;;;9.25;3.77;;;;;;;2.79;60.28;101458.90;1837666;77;22244;-60
2020/12/27 07:50:08;;;;;;;7.67;2.90;;;;;;;2.81;60.21;101461.88;1809404;75;21585;-58
2020/12/27 07:52:55;;;;;;;6.95;3.25;;;;;;;2.81;60.26;101464.48;1838582;77;21599;-59
2020/12/27 07:55:34;;;;;;;;;;;;;;;2.83;60.29;101462.25;1843427;77;21176;-59
2020/12/27 07:58:04;;;;;;;6.97;3.42;;;;;;;2.83;60.19;101470.05;1848741;76;20208;-60
2020/12/27 08:00:35;;;;;;;8.33;3.52;;;;;;;2.77;60.48;101472.40;1843934;77;22593;-59
2020/12/27 08:03:11;;;;;;;9.28;3.80;;;;;;;2.82;60.59;101459.23;1756055;79;23260;-57
2020/12/27 08:05:38;;;;;;;6.47;3.25;;;;;;;2.82;60.58;101468.34;1731446;82;22231;-58
2020/12/27 08:08:08;;;;;;;7.10;4.03;;;;;;;2.85;60.53;101474.75;1731388;82;23675;-58
2020/12/27 08:10:35;;;;;;;8.80;3.58;;;;;;;2.87;60.51;101473.41;1728153;82;21378;-58
2020/12/27 08:13:05;;;;;;;9.65;3.58;;;;;;;2.89;60.59;101480.70;1732010;82;21207;-59
2020/12/27 08:15:39;;;;;;;7.90;3.22;;;;;;;2.91;60.65;101480.23;1730289;81;21646;-58
2020/12/27 08:18:10;;;;;;;11.22;4.95;;;;;;;2.94;60.67;101481.41;1723273;82;21231;-58
2020/12/27 08:20:49;;;;;;;11.63;5.55;;;;;;;2.95;60.62;101487.02;1727673;82;21918;-58
2020/12/27 08:23:18;;;;;;;11.45;4.53;;;;;;;2.92;60.64;101484.51;1729268;82;21215;-59
2020/12/27 08:25:50;;;;;;;9.25;3.90;;;;;;;2.87;60.75;101489.00;1725664;82;21173;-58
2020/12/27 08:28:18;;;;;;;9.90;3.95;;;;;;;2.82;60.79;101486.53;1709563;82;22227;-58
2020/12/27 08:30:45;;;;;;;8.88;4.20;;;;;;;2.79;60.91;101490.09;1734894;82;21199;-58
2020/12/27 08:33:18;;;;;;;9.40;3.60;;;;;;;2.78;61.08;101490.13;1722551;81;21296;-59
2020/12/27 08:35:48;;;;;;;8.23;3.72;;;;;;;2.76;61.22;101487.58;1734195;82;21222;-57
2020/12/27 08:38:40;;;;;;;9.28;4.03;;;;;;;2.76;61.14;101492.77;1734521;82;21784;-59
2020/12/27 08:41:22;;;;;;;10.20;5.20;;;;;;;2.83;61.31;101490.00;1736483;82;21207;-59
2020/12/27 08:44:30;;;;;;;9.80;4.10;;;;;;;2.90;61.45;101489.75;1730385;82;21587;-59
2020/12/27 08:46:59;;;;;;;13.35;4.75;;;;;;;2.98;61.17;101490.84;1727520;82;23096;-61
2020/12/27 08:49:53;;;;;;;9.55;3.83;;;;;;;3.06;61.15;101481.05;1685130;82;21121;-59
2020/12/27 08:52:24;;;;;;;9.68;4.40;;;;;;;3.16;60.88;101480.29;1730123;82;21264;-60
2020/12/27 08:54:55;;;;;;;8.38;4.35;;;;;;;3.23;60.91;101475.75;1728435;81;21205;-59
2020/12/27 08:57:23;;;;;;;7.25;3.67;;;;;;;3.30;60.81;101472.91;1726614;80;21195;-59
2020/12/27 09:00:10;;;;;;;7.40;3.45;;;;;;;3.42;60.40;101479.92;1732134;82;21260;-58
2020/12/27 09:02:40;;;;;;;8.13;3.50;;;;;;;3.53;59.48;101473.89;1721040;82;22286;-60
2020/12/27 09:05:11;;;;;;;8.95;4.22;;;;;;;3.59;59.14;101469.80;1720079;82;21420;-59
2020/12/27 09:07:45;;;;;;;10.88;3.33;;;;;;;3.65;58.70;101472.66;1707728;82;21208;-59
2020/12/27 09:10:27;;;;;;;6.83;3.15;;;;;;;3.71;58.81;101468.53;1713842;82;21595;-59
2020/12/27 09:13:00;;;;;;;8.68;3.85;;;;;;;3.81;58.69;101474.28;1714556;81;21346;-60
2020/12/27 09:15:33;;;;;;;6.92;3.95;;;;;;;3.91;58.33;101472.59;1715391;82;21224;-59
2020/12/27 09:18:07;;;;;;;7.40;2.83;;;;;;;3.98;58.14;101464.58;1713053;82;21626;-57
2020/12/27 09:20:37;;;;;;;7.40;2.45;;;;;;;4.08;57.89;101461.61;1716147;82;21618;-59
2020/12/27 09:23:19;;;;;;;8.15;2.75;;;;;;;4.15;57.21;101457.00;1710873;82;21753;-57
2020/12/27 09:26:11;;;;;;;7.90;2.40;;;;;;;4.22;56.33;101455.91;1712110;82;21197;-59
2020/12/27 09:28:40;;;;;;;7.22;2.55;;;;;;;4.27;56.01;101450.53;1723251;82;21232;-58
2020/12/27 09:31:13;;;;;;;4.55;1.50;;;;;;;4.33;55.38;101450.28;1715354;82;21185;-59
2020/12/27 09:33:48;;;;;;;5.30;2.00;;;;;;;4.40;54.17;101453.52;1713337;82;22109;-59
2020/12/27 09:36:17;;;;;;;;;;;;;;;4.46;53.82;101458.52;1717378;82;21129;-59
2020/12/27 09:38:46;;;;;;;4.05;1.35;;;;;;;4.50;53.89;101459.23;1729183;82;21152;-60
2020/12/27 09:41:17;;;;;;;4.47;1.62;;;;;;;4.49;53.67;101458.83;1715011;82;21197;-60
2020/12/27 09:43:58;;;;;;;5.97;2.80;;;;;;;4.57;53.35;101456.36;1711762;82;21192;-58
2020/12/27 09:46:45;;;;;;;4.70;1.85;;;;;;;4.68;53.31;101461.61;1718456;82;21495;-59
2020/12/27 09:49:33;;;;;;;4.85;1.62;;;;;;;4.68;53.13;101468.97;1716763;82;21193;-60
2020/12/27 09:52:12;;;;;;;4.42;1.92;;;;;;;4.68;52.40;101465.06;1662577;85;21502;-56
2020/12/27 09:54:42;;;;;;;2.55;0.72;;;;;;;4.76;52.41;101452.58;1715378;82;21209;-59
2020/12/27 09:57:23;;;;;;;4.65;1.30;;;;;;;4.92;51.68;101456.73;1797807;77;23075;-58
2020/12/27 09:59:53;;;;;;;4.60;1.40;;;;;;;5.00;51.10;101464.27;1777260;80;21160;-55
2020/12/27 10:02:21;;;;;;;3.67;1.20;;;;;;;5.03;50.10;101471.52;1786133;80;21265;-57
2020/12/27 10:04:49;;;;;;;5.85;1.80;;;;;;;5.03;50.49;101467.61;1785088;80;21181;-57
2020/12/27 10:07:17;;;;;;;5.97;2.00;;;;;;;5.05;50.56;101471.92;1769289;80;21191;-57
2020/12/27 10:09:45;;;;;;;5.05;1.87;;;;;;;5.04;51.04;101464.53;1758055;80;21552;-57
2020/12/27 10:12:14;;;;;;;10.10;4.45;;;;;;;5.08;50.93;101461.34;1771273;80;21168;-58
2020/12/27 10:14:42;;;;;;;10.80;4.20;;;;;;;5.14;50.69;101465.86;1772537;80;21204;-58
2020/12/27 10:17:10;;;;;;;7.10;2.95;;;;;;;5.18;50.55;101460.09;1763614;80;21117;-58
2020/12/27 10:19:38;;;;;;;5.72;2.65;;;;;;;5.25;50.44;101464.61;1782058;80;21137;-58
2020/12/27 10:22:05;;;;;;;4.62;1.85;;;;;;;5.26;50.52;101464.55;1721701;83;22232;-58
2020/12/27 10:24:33;;;;;;;4.67;2.05;;;;;;;5.28;50.74;101466.63;1738078;81;21176;-58
2020/12/27 10:27:02;;;;;;;3.95;1.67;;;;;;;5.32;50.87;101467.36;1740899;81;23445;-59
2020/12/27 10:29:31;;;;;;;4.00;1.35;;;;;;;5.36;50.21;101472.83;1734240;81;21473;-58
2020/12/27 10:32:04;;;;;;;6.12;1.80;;;;;;;5.40;50.21;101467.42;1742605;81;22110;-59
2020/12/27 10:34:32;;;;;;;4.55;1.75;;;;;;;5.44;48.95;101455.56;1722975;83;21181;-59
2020/12/27 10:37:00;;;;;;;5.08;1.90;;;;;;;5.30;50.36;101467.41;1734034;81;21652;-59
2020/12/27 10:39:27;;;;;;;6.33;2.47;;;;;;;5.30;50.36;101467.41;1736941;80;21669;-59
2020/12/27 10:41:56;;;;;;;5.53;1.90;;;;;;;5.21;50.93;101469.08;1739220;81;21236;-59
2020/12/27 10:44:24;;;;;;;5.67;2.00;;;;;;;5.10;51.03;101468.67;1728421;81;21555;-58
2020/12/27 10:46:52;;;;;;;6.25;2.75;;;;;;;4.99;50.78;101464.73;1740102;81;21138;-59
2020/12/27 10:49:21;;;;;;;5.10;1.77;;;;;;;4.93;51.42;101455.84;1735397;81;21604;-57
2020/12/27 10:51:49;;;;;;;7.10;2.37;;;;;;;4.90;51.63;101464.24;1730174;81;21565;-58
2020/12/27 10:54:19;;;;;;;6.65;3.02;;;;;;;4.86;52.36;101467.42;1728376;82;21605;-58
2020/12/27 10:56:47;;;;;;;8.48;3.08;;;;;;;4.78;53.07;101463.80;1708477;82;21177;-58
2020/12/27 10:59:14;;;;;;;9.60;4.22;;;;;;;4.75;53.71;101460.47;1697039;82;21599;-57
2020/12/27 11:01:44;;;;;;;7.20;3.00;;;;;;;4.75;53.98;101451.34;1757926;80;21136;-59
2020/12/27 11:04:13;;;;;;;4.53;2.27;;;;;;;4.75;54.45;101448.27;1762317;80;21423;-57
2020/12/27 11:06:40;;;;;;;8.35;3.27;;;;;;;4.76;53.57;101449.14;1754242;80;21158;-58
2020/12/27 11:09:08;;;;;;;8.40;3.95;;;;;;;4.75;53.75;101450.03;1761262;80;21581;-58
2020/12/27 11:11:36;;;;;;;6.78;3.15;;;;;;;4.77;54.37;101448.21;1764127;80;21177;-58
2020/12/27 11:14:04;;;;;;;7.08;3.10;;;;;;;4.80;54.28;101442.88;1763684;80;21576;-58
2020/12/27 11:16:32;;;;;;;7.45;3.47;;;;;;;4.83;53.63;101434.94;1751930;79;21202;-58
2020/12/27 11:19:00;;;;;;;6.30;2.37;;;;;;;4.84;53.04;101434.89;1746169;79;21164;-57
2020/12/27 11:33:39;;;;;;;6.05;2.35;;;;;;;6.64;47.85;101421.56;1827918;77;22606;-57
2020/12/27 11:36:09;;;;;;;5.65;1.90;;;;;;;6.68;46.93;101434.90;1760214;79;21217;-57
2020/12/27 11:38:36;;;;;;;5.72;2.20;;;;;;;6.59;46.76;101434.88;1750354;80;21810;-57
2020/12/27 11:41:04;;;;;;;6.72;2.45;;;;;;;6.48;47.39;101430.13;1734620;81;21187;-58
2020/12/27 11:43:31;;;;;;;5.80;2.02;;;;;;;6.38;47.97;101411.86;1749046;81;21103;-58
2020/12/27 11:45:59;;;;;;;5.87;1.77;;;;;;;6.36;48.35;101408.48;1724828;81;21120;-57
2020/12/27 11:48:27;;;;;;;6.78;2.60;;;;;;;6.36;48.35;101408.48;1744266;81;21157;-58
2020/12/27 11:50:56;;;;;;;7.12;2.20;;;;;;;6.33;47.77;101408.61;1739916;82;21263;-58
2020/12/27 11:53:23;;;;;;;4.12;1.25;;;;;;;6.27;48.08;101412.80;1731764;82;21173;-58
2020/12/27 11:55:51;;;;;;;4.87;1.50;;;;;;;6.25;47.32;101415.48;1720634;81;21573;-57
2020/12/27 11:58:20;;;;;;;4.05;1.57;;;;;;;6.22;47.20;101414.78;1730685;82;21216;-58
2020/12/27 12:00:48;;;;;;;3.42;1.30;;;;;;;6.20;47.17;101412.70;1727304;82;21184;-56
2020/12/27 12:03:15;;;;;;;4.40;1.60;;;;;;;6.21;46.72;101414.41;1728447;82;21231;-57
2020/12/27 12:05:45;;;;;;;5.55;1.67;;;;;;;6.11;47.16;101410.05;1735254;82;21247;-57
2020/12/27 12:08:13;;;;;;;3.62;1.50;;;;;;;6.07;46.50;101415.88;1711230;82;21145;-58
2020/12/27 12:10:43;;;;;;;3.95;1.47;;;;;;;6.04;46.31;101412.08;1725790;82;21192;-60
2020/12/27 12:13:13;;;;;;;3.95;1.50;;;;;;;5.98;46.20;101416.73;1737344;82;21192;-59
2020/12/27 12:15:43;;;;;;;5.85;2.00;;;;;;;5.75;46.19;101418.57;1730811;82;21385;-59
2020/12/27 12:18:11;;;;;;;3.33;1.20;;;;;;;5.75;46.19;101418.57;1726307;82;21188;-59
2020/12/27 12:20:43;;;;;;;5.75;1.98;;;;;;;5.63;46.26;101425.61;1731519;82;21511;-60
2020/12/27 12:23:12;;;;;;;4.17;1.52;;;;;;;5.55;46.45;101426.78;1735519;82;21860;-58
2020/12/27 12:25:44;;;;;;;4.72;1.98;;;;;;;5.47;46.45;101427.56;1722896;82;21670;-59
2020/12/27 12:28:12;;;;;;;5.55;1.98;;;;;;;5.40;47.18;101427.44;1723880;81;22275;-58
2020/12/27 12:30:43;;;;;;;5.12;1.77;;;;;;;5.39;47.31;101427.03;1734080;82;21722;-67
2020/12/27 12:33:11;;;;;;;5.20;2.15;;;;;;;5.38;47.15;101422.27;1720938;81;21380;-63
2020/12/27 12:35:40;;;;;;;5.95;1.98;;;;;;;5.39;47.15;101422.65;1726343;82;21822;-62